sensor_id;sensor_type;location;lat;lon;timestamp;pressure;altitude;pressure_sealevel;temperature;humidity
39769;BME280;38939;47.824;14.642;2022-09-09T00:01:14;96830.34;;;15.53;86.43
39769;BME280;38939;47.824;14.642;2022-09-09T00:02:23;96827.72;;;15.53;86.77
39769;BME280;38939;47.824;14.642;2022-09-09T00:03:35;96826.91;;;15.53;86.52
39769;BME280;38939;47.824;14.642;2022-09-09T00:04:40;96830.34;;;15.53;86.55
39769;BME280;38939;47.824;14.642;2022-09-09T00:05:49;96827.72;;;15.53;86.40
39769;BME280;38939;47.824;14.642;2022-09-09T00:07:13;96827.47;;;15.55;86.46
39769;BME280;38939;47.824;14.642;2022-09-09T00:08:19;96832.06;;;15.48;86.29
39769;BME280;38939;47.824;14.642;2022-09-09T00:09:23;96816.53;;;15.46;86.28
39769;BME280;38939;47.824;14.642;2022-09-09T00:10:28;96824.41;;;15.46;86.35
39769;BME280;38939;47.824;14.642;2022-09-09T00:11:34;96827.28;;;15.45;86.12
39769;BME280;38939;47.824;14.642;2022-09-09T00:12:44;96818.38;;;15.46;86.30
39769;BME280;38939;47.824;14.642;2022-09-09T00:13:52;96831.19;;;15.42;86.23
39769;BME280;38939;47.824;14.642;2022-09-09T00:14:56;96826.47;;;15.44;86.32
39769;BME280;38939;47.824;14.642;2022-09-09T00:16:04;96831.97;;;15.43;86.08
39769;BME280;38939;47.824;14.642;2022-09-09T00:17:12;96830.59;;;15.40;86.18
39769;BME280;38939;47.824;14.642;2022-09-09T00:19:28;96824.78;;;15.38;86.03
39769;BME280;38939;47.824;14.642;2022-09-09T00:20:39;96823.19;;;15.37;85.86
39769;BME280;38939;47.824;14.642;2022-09-09T00:22:07;96822.94;;;15.38;86.02
39769;BME280;38939;47.824;14.642;2022-09-09T00:24:23;96826.84;;;15.36;86.05
39769;BME280;38939;47.824;14.642;2022-09-09T00:25:32;96824.56;;;15.39;86.06
39769;BME280;38939;47.824;14.642;2022-09-09T00:26:44;96833.81;;;15.42;85.65
39769;BME280;38939;47.824;14.642;2022-09-09T00:27:49;96817.69;;;15.38;85.12
39769;BME280;38939;47.824;14.642;2022-09-09T00:28:58;96834.50;;;15.37;85.38
39769;BME280;38939;47.824;14.642;2022-09-09T00:30:26;96840.38;;;15.28;85.40
39769;BME280;38939;47.824;14.642;2022-09-09T00:31:28;96833.75;;;15.25;85.68
39769;BME280;38939;47.824;14.642;2022-09-09T00:32:30;96832.06;;;15.19;85.50
39769;BME280;38939;47.824;14.642;2022-09-09T00:33:37;96834.69;;;15.19;85.71
39769;BME280;38939;47.824;14.642;2022-09-09T00:35:01;96827.59;;;15.19;85.79
39769;BME280;38939;47.824;14.642;2022-09-09T00:36:04;96829.16;;;15.20;85.83
39769;BME280;38939;47.824;14.642;2022-09-09T00:37:11;96825.31;;;15.23;86.22
39769;BME280;38939;47.824;14.642;2022-09-09T00:38:23;96826.88;;;15.24;86.33
39769;BME280;38939;47.824;14.642;2022-09-09T00:39:34;96833.97;;;15.24;86.42
39769;BME280;38939;47.824;14.642;2022-09-09T00:42:01;96828.72;;;15.24;86.25
39769;BME280;38939;47.824;14.642;2022-09-09T00:43:12;96826.53;;;15.20;86.42
39769;BME280;38939;47.824;14.642;2022-09-09T00:50:57;96831.78;;;15.32;86.72
39769;BME280;38939;47.824;14.642;2022-09-09T00:52:18;96824.59;;;15.28;86.23
39769;BME280;38939;47.824;14.642;2022-09-09T00:53:28;96831.13;;;15.25;86.32
39769;BME280;38939;47.824;14.642;2022-09-09T00:54:48;96826.44;;;15.27;86.47
39769;BME280;38939;47.824;14.642;2022-09-09T00:55:54;96829.06;;;15.27;86.32
39769;BME280;38939;47.824;14.642;2022-09-09T00:57:07;96835.69;;;15.30;86.42
39769;BME280;38939;47.824;14.642;2022-09-09T00:58:13;96836.25;;;15.32;86.17
39769;BME280;38939;47.824;14.642;2022-09-09T01:00:15;96832.81;;;15.31;86.21
39769;BME280;38939;47.824;14.642;2022-09-09T01:00:40;96826.19;;;15.29;86.08
39769;BME280;38939;47.824;14.642;2022-09-09T01:01:43;96830.41;;;15.30;86.34
39769;BME280;38939;47.824;14.642;2022-09-09T01:03:54;96840.22;;;15.34;86.17
39769;BME280;38939;47.824;14.642;2022-09-09T01:05:02;96833.94;;;15.35;85.84
39769;BME280;38939;47.824;14.642;2022-09-09T01:07:28;96833.38;;;15.33;85.72
39769;BME280;38939;47.824;14.642;2022-09-09T01:10:50;96830.06;;;15.26;85.73
39769;BME280;38939;47.824;14.642;2022-09-09T01:13:02;96824.38;;;15.29;85.79
39769;BME280;38939;47.824;14.642;2022-09-09T01:14:13;96829.63;;;15.29;86.00
39769;BME280;38939;47.824;14.642;2022-09-09T01:15:21;96835.91;;;15.28;85.88
39769;BME280;38939;47.824;14.642;2022-09-09T01:16:26;96834.78;;;15.24;86.21
39769;BME280;38939;47.824;14.642;2022-09-09T01:17:44;96831.13;;;15.25;86.02
39769;BME280;38939;47.824;14.642;2022-09-09T01:18:49;96830.06;;;15.26;86.08
39769;BME280;38939;47.824;14.642;2022-09-09T01:21:04;96824.59;;;15.28;86.49
39769;BME280;38939;47.824;14.642;2022-09-09T01:25:05;96825.72;;;15.32;86.12
39769;BME280;38939;47.824;14.642;2022-09-09T01:26:45;96824.13;;;15.31;86.05
39769;BME280;38939;47.824;14.642;2022-09-09T01:27:40;96827.78;;;15.30;85.97
39769;BME280;38939;47.824;14.642;2022-09-09T01:28:44;96825.63;;;15.27;85.83
39769;BME280;38939;47.824;14.642;2022-09-09T01:29:47;96826.66;;;15.26;85.94
39769;BME280;38939;47.824;14.642;2022-09-09T01:30:49;96825.38;;;15.28;86.05
39769;BME280;38939;47.824;14.642;2022-09-09T01:31:57;96822.19;;;15.26;85.92
39769;BME280;38939;47.824;14.642;2022-09-09T01:32:59;96829.06;;;15.27;85.96
39769;BME280;38939;47.824;14.642;2022-09-09T01:34:08;96818.53;;;15.27;86.00
39769;BME280;38939;47.824;14.642;2022-09-09T01:35:26;96826.44;;;15.27;86.19
39769;BME280;38939;47.824;14.642;2022-09-09T01:36:31;96823.31;;;15.30;86.04
39769;BME280;38939;47.824;14.642;2022-09-09T01:37:35;96828.91;;;15.34;85.93
39769;BME280;38939;47.824;14.642;2022-09-09T01:38:36;96818.63;;;15.32;86.02
39769;BME280;38939;47.824;14.642;2022-09-09T01:39:39;96820.25;;;15.33;85.83
39769;BME280;38939;47.824;14.642;2022-09-09T01:40:42;96826.28;;;15.34;85.81
39769;BME280;38939;47.824;14.642;2022-09-09T01:41:44;96818.41;;;15.34;86.06
39769;BME280;38939;47.824;14.642;2022-09-09T01:42:46;96825.72;;;15.32;86.17
39769;BME280;38939;47.824;14.642;2022-09-09T01:43:48;96829.72;;;15.34;85.72
39769;BME280;38939;47.824;14.642;2022-09-09T01:44:50;96820.25;;;15.33;85.71
39769;BME280;38939;47.824;14.642;2022-09-09T01:45:53;96820.47;;;15.32;85.74
39769;BME280;38939;47.824;14.642;2022-09-09T01:46:56;96821.25;;;15.32;85.94
39769;BME280;38939;47.824;14.642;2022-09-09T01:47:58;96826.50;;;15.32;85.96
39769;BME280;38939;47.824;14.642;2022-09-09T01:49:02;96821.25;;;15.32;85.81
39769;BME280;38939;47.824;14.642;2022-09-09T01:50:06;96827.56;;;15.31;85.77
39769;BME280;38939;47.824;14.642;2022-09-09T01:51:09;96820.13;;;15.28;85.79
39769;BME280;38939;47.824;14.642;2022-09-09T01:52:14;96820.34;;;15.27;85.83
39769;BME280;38939;47.824;14.642;2022-09-09T01:53:17;96818.28;;;15.29;85.86
39769;BME280;38939;47.824;14.642;2022-09-09T01:54:19;96822.31;;;15.31;85.99
39769;BME280;38939;47.824;14.642;2022-09-09T01:55:32;96814.31;;;15.26;85.93
39769;BME280;38939;47.824;14.642;2022-09-09T02:00:08;96817.50;;;15.28;86.16
39769;BME280;38939;47.824;14.642;2022-09-09T02:01:23;96809.28;;;15.25;86.13
39769;BME280;38939;47.824;14.642;2022-09-09T02:02:35;96812.47;;;15.27;85.97
39769;BME280;38939;47.824;14.642;2022-09-09T02:03:38;96804.84;;;15.25;85.89
39769;BME280;38939;47.824;14.642;2022-09-09T02:04:42;96810.66;;;15.27;85.86
39769;BME280;38939;47.824;14.642;2022-09-09T02:06:53;96808.59;;;15.29;85.76
39769;BME280;38939;47.824;14.642;2022-09-09T02:08:07;96810.19;;;15.30;85.73
39769;BME280;38939;47.824;14.642;2022-09-09T02:09:10;96817.50;;;15.28;85.77
39769;BME280;38939;47.824;14.642;2022-09-09T02:10:20;96814.53;;;15.25;85.60
39769;BME280;38939;47.824;14.642;2022-09-09T02:11:24;96816.16;;;15.26;85.77
39769;BME280;38939;47.824;14.642;2022-09-09T02:12:26;96803.78;;;15.26;85.77
39769;BME280;38939;47.824;14.642;2022-09-09T02:13:29;96795.91;;;15.26;85.62
39769;BME280;38939;47.824;14.642;2022-09-09T02:14:39;96805.41;;;15.27;85.76
39769;BME280;38939;47.824;14.642;2022-09-09T02:15:45;96796.69;;;15.27;85.43
39769;BME280;38939;47.824;14.642;2022-09-09T02:16:53;96794.06;;;15.27;85.60
39769;BME280;38939;47.824;14.642;2022-09-09T02:17:58;96789.38;;;15.29;85.34
39769;BME280;38939;47.824;14.642;2022-09-09T02:19:23;96790.97;;;15.30;85.47
39769;BME280;38939;47.824;14.642;2022-09-09T02:20:27;96794.41;;;15.30;85.24
39769;BME280;38939;47.824;14.642;2022-09-09T02:21:35;96788.13;;;15.31;85.21
39769;BME280;38939;47.824;14.642;2022-09-09T02:22:38;96790.97;;;15.30;85.13
39769;BME280;38939;47.824;14.642;2022-09-09T02:23:42;96793.28;;;15.26;85.00
39769;BME280;38939;47.824;14.642;2022-09-09T02:24:44;96793.84;;;15.28;84.91
39769;BME280;38939;47.824;14.642;2022-09-09T02:25:48;96794.31;;;15.25;84.86
39769;BME280;38939;47.824;14.642;2022-09-09T02:26:53;96798.44;;;15.21;85.03
39769;BME280;38939;47.824;14.642;2022-09-09T02:27:56;96792.94;;;15.23;85.16
39769;BME280;38939;47.824;14.642;2022-09-09T02:29:02;96787.94;;;15.21;85.32
39769;BME280;38939;47.824;14.642;2022-09-09T02:30:06;96801.75;;;15.16;85.25
39769;BME280;38939;47.824;14.642;2022-09-09T02:31:08;96802.25;;;15.13;85.50
39769;BME280;38939;47.824;14.642;2022-09-09T02:32:14;96800.41;;;15.14;85.58
39769;BME280;38939;47.824;14.642;2022-09-09T02:33:17;96802.56;;;15.17;85.38
39769;BME280;38939;47.824;14.642;2022-09-09T02:34:20;96809.41;;;15.18;85.21
39769;BME280;38939;47.824;14.642;2022-09-09T02:35:23;96794.44;;;15.18;85.41
39769;BME280;38939;47.824;14.642;2022-09-09T02:36:29;96798.34;;;15.16;85.12
39769;BME280;38939;47.824;14.642;2022-09-09T02:37:34;96799.03;;;15.11;85.01
39769;BME280;38939;47.824;14.642;2022-09-09T02:38:40;96801.44;;;15.13;84.85
39769;BME280;38939;47.824;14.642;2022-09-09T02:39:44;96798.47;;;15.09;84.97
39769;BME280;38939;47.824;14.642;2022-09-09T02:40:46;96803.50;;;15.11;85.16
39769;BME280;38939;47.824;14.642;2022-09-09T02:41:48;96791.28;;;15.05;84.92
39769;BME280;38939;47.824;14.642;2022-09-09T02:42:50;96797.34;;;15.05;84.94
39769;BME280;38939;47.824;14.642;2022-09-09T02:43:52;96800.78;;;15.06;85.21
39769;BME280;38939;47.824;14.642;2022-09-09T02:44:53;96794.25;;;15.08;85.28
39769;BME280;38939;47.824;14.642;2022-09-09T02:46:02;96807.16;;;15.10;85.18
39769;BME280;38939;47.824;14.642;2022-09-09T02:48:21;96800.63;;;15.12;85.17
39769;BME280;38939;47.824;14.642;2022-09-09T02:51:02;96806.47;;;15.03;85.42
39769;BME280;38939;47.824;14.642;2022-09-09T02:52:08;96805.91;;;15.00;85.64
39769;BME280;38939;47.824;14.642;2022-09-09T02:53:17;96811.41;;;14.99;85.86
39769;BME280;38939;47.824;14.642;2022-09-09T02:54:29;96806.16;;;14.99;85.85
39769;BME280;38939;47.824;14.642;2022-09-09T02:55:39;96809.81;;;14.98;85.79
39769;BME280;38939;47.824;14.642;2022-09-09T02:56:46;96815.84;;;14.98;85.85
39769;BME280;38939;47.824;14.642;2022-09-09T02:57:51;96815.84;;;14.98;85.73
39769;BME280;38939;47.824;14.642;2022-09-09T02:58:54;96813.22;;;14.98;85.42
39769;BME280;38939;47.824;14.642;2022-09-09T02:59:58;96813.47;;;14.97;85.93
39769;BME280;38939;47.824;14.642;2022-09-09T03:01:00;96812.66;;;14.96;86.03
39769;BME280;38939;47.824;14.642;2022-09-09T03:02:04;96815.75;;;14.93;86.06
39769;BME280;38939;47.824;14.642;2022-09-09T03:03:07;96813.38;;;14.92;85.95
39769;BME280;38939;47.824;14.642;2022-09-09T03:04:10;96805.13;;;14.88;86.20
39769;BME280;38939;47.824;14.642;2022-09-09T03:05:12;96800.38;;;14.85;86.35
39769;BME280;38939;47.824;14.642;2022-09-09T03:06:14;96806.97;;;14.88;86.11
39769;BME280;38939;47.824;14.642;2022-09-09T03:07:16;96805.72;;;14.90;86.30
39769;BME280;38939;47.824;14.642;2022-09-09T03:08:18;96794.19;;;14.91;86.43
39769;BME280;38939;47.824;14.642;2022-09-09T03:09:20;96802.41;;;14.95;86.41
39769;BME280;38939;47.824;14.642;2022-09-09T03:10:22;96800.09;;;14.98;86.31
39769;BME280;38939;47.824;14.642;2022-09-09T03:11:24;96813.78;;;15.00;86.00
39769;BME280;38939;47.824;14.642;2022-09-09T03:12:26;96806.72;;;15.01;86.00
39769;BME280;38939;47.824;14.642;2022-09-09T03:13:28;96801.69;;;14.99;85.90
39769;BME280;38939;47.824;14.642;2022-09-09T03:14:30;96807.75;;;15.00;85.91
39769;BME280;38939;47.824;14.642;2022-09-09T03:15:32;96808.22;;;14.97;85.38
39769;BME280;38939;47.824;14.642;2022-09-09T03:16:35;96811.06;;;14.95;85.59
39769;BME280;38939;47.824;14.642;2022-09-09T03:17:36;96811.88;;;14.96;85.65
39769;BME280;38939;47.824;14.642;2022-09-09T03:18:39;96813.47;;;14.97;85.73
39769;BME280;38939;47.824;14.642;2022-09-09T03:19:40;96812.44;;;14.98;85.71
39769;BME280;38939;47.824;14.642;2022-09-09T03:20:42;96813.22;;;14.98;85.56
39769;BME280;38939;47.824;14.642;2022-09-09T03:21:45;96818.47;;;14.98;85.33
39769;BME280;38939;47.824;14.642;2022-09-09T03:22:47;96817.69;;;14.98;85.35
39769;BME280;38939;47.824;14.642;2022-09-09T03:23:49;96816.09;;;14.97;85.48
39769;BME280;38939;47.824;14.642;2022-09-09T03:24:51;96823.16;;;14.96;85.11
39769;BME280;38939;47.824;14.642;2022-09-09T03:25:53;96824.44;;;14.94;85.37
39769;BME280;38939;47.824;14.642;2022-09-09T03:26:58;96824.44;;;14.94;85.24
39769;BME280;38939;47.824;14.642;2022-09-09T03:28:00;96823.09;;;14.91;85.44
39769;BME280;38939;47.824;14.642;2022-09-09T03:29:02;96822.03;;;14.92;85.30
39769;BME280;38939;47.824;14.642;2022-09-09T03:30:04;96816.78;;;14.92;85.20
39769;BME280;38939;47.824;14.642;2022-09-09T03:31:06;96812.56;;;14.91;85.52
39769;BME280;38939;47.824;14.642;2022-09-09T03:32:12;96816.78;;;14.92;85.34
39769;BME280;38939;47.824;14.642;2022-09-09T03:33:14;96814.72;;;14.94;85.50
39769;BME280;38939;47.824;14.642;2022-09-09T03:34:17;96812.66;;;14.96;85.17
39769;BME280;38939;47.824;14.642;2022-09-09T03:35:19;96816.69;;;14.99;85.30
39769;BME280;38939;47.824;14.642;2022-09-09T03:36:21;96810.16;;;15.02;85.09
39769;BME280;38939;47.824;14.642;2022-09-09T03:37:23;96811.41;;;14.99;85.05
39769;BME280;38939;47.824;14.642;2022-09-09T03:38:25;96813.22;;;14.98;85.20
39769;BME280;38939;47.824;14.642;2022-09-09T03:39:27;96807.97;;;14.98;85.24
39769;BME280;38939;47.824;14.642;2022-09-09T03:40:28;96813.00;;;15.00;85.20
39769;BME280;38939;47.824;14.642;2022-09-09T03:41:30;96813.56;;;15.02;85.09
39769;BME280;38939;47.824;14.642;2022-09-09T03:42:32;96815.84;;;14.98;85.08
39769;BME280;38939;47.824;14.642;2022-09-09T03:43:34;96807.97;;;14.98;85.12
39769;BME280;38939;47.824;14.642;2022-09-09T03:44:36;96807.41;;;14.96;85.36
39769;BME280;38939;47.824;14.642;2022-09-09T03:45:38;96795.31;;;14.95;85.44
39769;BME280;38939;47.824;14.642;2022-09-09T03:46:40;96800.56;;;14.95;85.32
39769;BME280;38939;47.824;14.642;2022-09-09T03:47:42;96793.03;;;14.99;85.22
39769;BME280;38939;47.824;14.642;2022-09-09T03:48:44;96796.66;;;14.98;84.82
39769;BME280;38939;47.824;14.642;2022-09-09T03:49:45;96794.75;;;14.93;85.00
39769;BME280;38939;47.824;14.642;2022-09-09T03:50:49;96796.31;;;14.94;85.06
39769;BME280;38939;47.824;14.642;2022-09-09T03:51:51;96799.53;;;14.96;84.95
39769;BME280;38939;47.824;14.642;2022-09-09T03:52:53;96809.81;;;14.98;84.95
39769;BME280;38939;47.824;14.642;2022-09-09T03:53:54;96809.59;;;14.99;84.73
39769;BME280;38939;47.824;14.642;2022-09-09T03:54:58;96807.75;;;15.00;84.61
39769;BME280;38939;47.824;14.642;2022-09-09T03:56:00;96807.75;;;15.00;84.55
39769;BME280;38939;47.824;14.642;2022-09-09T03:57:02;96810.84;;;14.97;84.47
39769;BME280;38939;47.824;14.642;2022-09-09T03:58:04;96809.81;;;14.98;84.67
39769;BME280;38939;47.824;14.642;2022-09-09T03:59:06;96809.47;;;14.94;84.66
39769;BME280;38939;47.824;14.642;2022-09-09T04:00:10;96814.72;;;14.94;84.74
39769;BME280;38939;47.824;14.642;2022-09-09T04:01:12;96816.34;;;14.95;84.80
39769;BME280;38939;47.824;14.642;2022-09-09T04:02:15;96816.34;;;14.95;84.76
39769;BME280;38939;47.824;14.642;2022-09-09T04:03:17;96814.41;;;14.91;84.64
39769;BME280;38939;47.824;14.642;2022-09-09T04:04:19;96818.06;;;14.90;84.59
39769;BME280;38939;47.824;14.642;2022-09-09T04:05:21;96810.38;;;14.88;84.85
39769;BME280;38939;47.824;14.642;2022-09-09T04:06:23;96812.00;;;14.89;84.72
39769;BME280;38939;47.824;14.642;2022-09-09T04:07:26;96809.16;;;14.91;84.96
39769;BME280;38939;47.824;14.642;2022-09-09T04:08:29;96804.69;;;14.91;84.66
39769;BME280;38939;47.824;14.642;2022-09-09T04:09:34;96802.28;;;14.90;84.92
39769;BME280;38939;47.824;14.642;2022-09-09T04:10:36;96800.13;;;14.87;84.84
39769;BME280;38939;47.824;14.642;2022-09-09T04:11:38;96797.50;;;14.87;85.19
39769;BME280;38939;47.824;14.642;2022-09-09T04:12:40;96793.84;;;14.88;85.00
39769;BME280;38939;47.824;14.642;2022-09-09T04:13:46;96793.03;;;14.87;85.05
39769;BME280;38939;47.824;14.642;2022-09-09T04:14:48;96790.66;;;14.86;85.12
39769;BME280;38939;47.824;14.642;2022-09-09T04:15:54;96797.25;;;14.88;85.20
39769;BME280;38939;47.824;14.642;2022-09-09T04:16:57;96791.56;;;14.91;85.12
39769;BME280;38939;47.824;14.642;2022-09-09T04:18:00;96794.75;;;14.93;84.91
39769;BME280;38939;47.824;14.642;2022-09-09T04:19:03;96798.16;;;14.94;84.93
39769;BME280;38939;47.824;14.642;2022-09-09T04:20:05;96802.63;;;14.93;84.91
39769;BME280;38939;47.824;14.642;2022-09-09T04:21:10;96807.88;;;14.93;85.03
39769;BME280;38939;47.824;14.642;2022-09-09T04:22:13;96809.47;;;14.94;84.79
39769;BME280;38939;47.824;14.642;2022-09-09T04:23:15;96813.13;;;14.93;84.61
39769;BME280;38939;47.824;14.642;2022-09-09T04:24:17;96805.25;;;14.93;84.99
39769;BME280;38939;47.824;14.642;2022-09-09T04:25:19;96800.56;;;14.95;84.86
39769;BME280;38939;47.824;14.642;2022-09-09T04:26:21;96799.53;;;14.96;84.76
39769;BME280;38939;47.824;14.642;2022-09-09T04:27:23;96804.69;;;14.91;84.80
39769;BME280;38939;47.824;14.642;2022-09-09T04:28:26;96799.88;;;14.88;84.96
39769;BME280;38939;47.824;14.642;2022-09-09T04:29:28;96804.34;;;14.88;84.87
39769;BME280;38939;47.824;14.642;2022-09-09T04:30:30;96796.13;;;14.84;84.84
39769;BME280;38939;47.824;14.642;2022-09-09T04:31:31;96794.75;;;14.82;84.73
39769;BME280;38939;47.824;14.642;2022-09-09T04:32:33;96789.16;;;14.78;84.54
39769;BME280;38939;47.824;14.642;2022-09-09T04:33:35;96791.00;;;14.77;84.73
39769;BME280;38939;47.824;14.642;2022-09-09T04:34:40;96798.09;;;14.77;84.78
39769;BME280;38939;47.824;14.642;2022-09-09T04:35:47;96801.28;;;14.79;84.67
39769;BME280;38939;47.824;14.642;2022-09-09T04:36:49;96805.75;;;14.78;84.50
39769;BME280;38939;47.824;14.642;2022-09-09T04:37:53;96799.69;;;14.78;84.57
39769;BME280;38939;47.824;14.642;2022-09-09T04:38:54;96798.88;;;14.77;84.37
39769;BME280;38939;47.824;14.642;2022-09-09T04:39:56;96797.28;;;14.76;84.50
39769;BME280;38939;47.824;14.642;2022-09-09T04:40:58;96800.16;;;14.75;84.24
39769;BME280;38939;47.824;14.642;2022-09-09T04:42:00;96801.72;;;14.76;84.39
39769;BME280;38939;47.824;14.642;2022-09-09T04:43:03;96804.34;;;14.76;84.40
39769;BME280;38939;47.824;14.642;2022-09-09T04:44:06;96798.88;;;14.77;84.61
39769;BME280;38939;47.824;14.642;2022-09-09T04:45:08;96804.72;;;14.79;84.54
39769;BME280;38939;47.824;14.642;2022-09-09T04:46:12;96811.78;;;14.79;84.55
39769;BME280;38939;47.824;14.642;2022-09-09T04:47:14;96811.00;;;14.78;84.78
39769;BME280;38939;47.824;14.642;2022-09-09T04:48:16;96808.59;;;14.77;84.88
39769;BME280;38939;47.824;14.642;2022-09-09T04:49:18;96808.81;;;14.75;84.98
39769;BME280;38939;47.824;14.642;2022-09-09T04:50:20;96812.59;;;14.79;85.03
39769;BME280;38939;47.824;14.642;2022-09-09T04:51:22;96812.94;;;14.83;84.86
39769;BME280;38939;47.824;14.642;2022-09-09T04:52:24;96807.09;;;14.81;84.81
39769;BME280;38939;47.824;14.642;2022-09-09T04:53:26;96810.19;;;14.78;84.84
39769;BME280;38939;47.824;14.642;2022-09-09T04:54:28;96802.78;;;14.75;85.14
39769;BME280;38939;47.824;14.642;2022-09-09T04:55:30;96801.72;;;14.76;85.32
39769;BME280;38939;47.824;14.642;2022-09-09T04:56:32;96805.41;;;14.75;85.22
39769;BME280;38939;47.824;14.642;2022-09-09T04:57:34;96804.34;;;14.76;85.26
39769;BME280;38939;47.824;14.642;2022-09-09T04:58:36;96808.03;;;14.75;85.22
39769;BME280;38939;47.824;14.642;2022-09-09T04:59:38;96797.19;;;14.71;85.23
39769;BME280;38939;47.824;14.642;2022-09-09T05:00:40;96800.59;;;14.72;85.47
39769;BME280;38939;47.824;14.642;2022-09-09T05:01:43;96799.59;;;14.73;85.71
39769;BME280;38939;47.824;14.642;2022-09-09T05:02:45;96804.34;;;14.76;85.72
39769;BME280;38939;47.824;14.642;2022-09-09T05:03:49;96799.34;;;14.74;85.59
39769;BME280;38939;47.824;14.642;2022-09-09T05:04:51;96807.56;;;14.78;85.65
39769;BME280;38939;47.824;14.642;2022-09-09T05:05:53;96804.94;;;14.78;85.56
39769;BME280;38939;47.824;14.642;2022-09-09T05:06:55;96803.44;;;14.82;85.38
39769;BME280;38939;47.824;14.642;2022-09-09T05:08:04;96807.69;;;14.83;85.37
39769;BME280;38939;47.824;14.642;2022-09-09T05:09:06;96802.19;;;14.85;85.41
39769;BME280;38939;47.824;14.642;2022-09-09T05:10:08;96809.59;;;14.88;85.51
39769;BME280;38939;47.824;14.642;2022-09-09T05:11:16;96806.97;;;14.88;85.32
39769;BME280;38939;47.824;14.642;2022-09-09T05:12:19;96810.16;;;14.90;85.33
39769;BME280;38939;47.824;14.642;2022-09-09T05:13:21;96815.19;;;14.91;85.22
39769;BME280;38939;47.824;14.642;2022-09-09T05:14:24;96809.72;;;14.93;85.05
39769;BME280;38939;47.824;14.642;2022-09-09T05:15:26;96806.28;;;14.92;85.31
39769;BME280;38939;47.824;14.642;2022-09-09T05:16:27;96802.28;;;14.90;85.19
39769;BME280;38939;47.824;14.642;2022-09-09T05:17:29;96810.72;;;14.92;85.08
39769;BME280;38939;47.824;14.642;2022-09-09T05:18:31;96812.78;;;14.90;84.96
39769;BME280;38939;47.824;14.642;2022-09-09T05:19:33;96809.94;;;14.91;85.10
39769;BME280;38939;47.824;14.642;2022-09-09T05:20:35;96811.22;;;14.89;84.87
39769;BME280;38939;47.824;14.642;2022-09-09T05:21:38;96807.69;;;14.83;85.23
39769;BME280;38939;47.824;14.642;2022-09-09T05:22:39;96804.81;;;14.85;85.30
39769;BME280;38939;47.824;14.642;2022-09-09T05:23:41;96808.03;;;14.87;85.37
39769;BME280;38939;47.824;14.642;2022-09-09T05:24:43;96812.78;;;14.90;85.37
39769;BME280;38939;47.824;14.642;2022-09-09T05:25:53;96813.94;;;14.94;85.29
39769;BME280;38939;47.824;14.642;2022-09-09T05:26:56;96809.25;;;14.96;84.99
39769;BME280;38939;47.824;14.642;2022-09-09T05:28:00;96807.88;;;14.93;84.98
39769;BME280;38939;47.824;14.642;2022-09-09T05:29:02;96802.06;;;14.91;84.99
39769;BME280;38939;47.824;14.642;2022-09-09T05:30:04;96808.91;;;14.92;84.96
39769;BME280;38939;47.824;14.642;2022-09-09T05:31:07;96811.06;;;14.95;85.12
39769;BME280;38939;47.824;14.642;2022-09-09T05:32:09;96804.78;;;14.96;85.13
39769;BME280;38939;47.824;14.642;2022-09-09T05:33:15;96810.16;;;15.02;85.06
39769;BME280;38939;47.824;14.642;2022-09-09T05:34:17;96807.03;;;15.05;84.97
39769;BME280;38939;47.824;14.642;2022-09-09T05:35:19;96808.19;;;15.09;84.61
39769;BME280;38939;47.824;14.642;2022-09-09T05:36:22;96811.63;;;15.09;84.64
39769;BME280;38939;47.824;14.642;2022-09-09T05:37:24;96811.41;;;15.11;84.80
39769;BME280;38939;47.824;14.642;2022-09-09T05:38:27;96814.03;;;15.11;84.69
39769;BME280;38939;47.824;14.642;2022-09-09T05:39:30;96814.34;;;15.14;84.81
39769;BME280;38939;47.824;14.642;2022-09-09T05:40:32;96810.91;;;15.14;84.57
39769;BME280;38939;47.824;14.642;2022-09-09T05:41:34;96816.75;;;15.16;84.67
39769;BME280;38939;47.824;14.642;2022-09-09T05:42:37;96817.88;;;15.20;84.89
39769;BME280;38939;47.824;14.642;2022-09-09T05:43:38;96813.19;;;15.22;84.99
39769;BME280;38939;47.824;14.642;2022-09-09T05:44:40;96816.38;;;15.24;84.79
39769;BME280;38939;47.824;14.642;2022-09-09T05:46:15;96817.97;;;15.25;84.85
39769;BME280;38939;47.824;14.642;2022-09-09T05:47:17;96814.66;;;15.30;84.69
39769;BME280;38939;47.824;14.642;2022-09-09T05:48:19;96813.03;;;15.29;84.77
39769;BME280;38939;47.824;14.642;2022-09-09T05:49:21;96811.22;;;15.29;84.86
39769;BME280;38939;47.824;14.642;2022-09-09T05:50:23;96812.81;;;15.30;84.71
39769;BME280;38939;47.824;14.642;2022-09-09T05:51:29;96814.88;;;15.28;84.81
39769;BME280;38939;47.824;14.642;2022-09-09T05:52:31;96816.47;;;15.29;85.09
39769;BME280;38939;47.824;14.642;2022-09-09T05:53:34;96813.28;;;15.27;84.73
39769;BME280;38939;47.824;14.642;2022-09-09T05:54:36;96811.91;;;15.25;84.93
39769;BME280;38939;47.824;14.642;2022-09-09T05:55:39;96814.53;;;15.25;85.16
39769;BME280;38939;47.824;14.642;2022-09-09T05:56:41;96812.16;;;15.23;85.13
39769;BME280;38939;47.824;14.642;2022-09-09T05:57:47;96808.25;;;15.26;85.25
39769;BME280;38939;47.824;14.642;2022-09-09T05:58:49;96810.09;;;15.25;85.22
39769;BME280;38939;47.824;14.642;2022-09-09T05:59:51;96810.09;;;15.25;85.01
39769;BME280;38939;47.824;14.642;2022-09-09T06:00:59;96811.69;;;15.26;84.93
39769;BME280;38939;47.824;14.642;2022-09-09T06:02:02;96815.66;;;15.29;85.07
39769;BME280;38939;47.824;14.642;2022-09-09T06:03:04;96801.50;;;15.30;84.72
39769;BME280;38939;47.824;14.642;2022-09-09T06:04:06;96809.63;;;15.28;84.74
39769;BME280;38939;47.824;14.642;2022-09-09T06:05:08;96811.78;;;15.31;84.71
39769;BME280;38939;47.824;14.642;2022-09-09T06:06:14;96817.28;;;15.30;84.54